sensor_id;sensor_type;location;lat;lon;timestamp;pressure;altitude;pressure_sealevel;temperature;humidity
6389;BME280;3227;42.654;23.360;2022-08-19T00:00:10;94210.09;;;24.78;55.13
6389;BME280;3227;42.654;23.360;2022-08-19T00:02:40;94214.50;;;24.77;55.36
6389;BME280;3227;42.654;23.360;2022-08-19T00:05:08;94207.75;;;24.73;55.02
6389;BME280;3227;42.654;23.360;2022-08-19T00:07:36;94167.28;;;24.49;54.90
6389;BME280;3227;42.654;23.360;2022-08-19T00:10:03;94209.81;;;24.68;54.97
6389;BME280;3227;42.654;23.360;2022-08-19T00:12:32;94216.53;;;24.72;55.43
6389;BME280;3227;42.654;23.360;2022-08-19T00:14:59;94204.19;;;24.74;55.96
6389;BME280;3227;42.654;23.360;2022-08-19T00:17:26;94213.06;;;24.72;55.85
6389;BME280;3227;42.654;23.360;2022-08-19T00:19:53;94221.00;;;24.56;56.17
6389;BME280;3227;42.654;23.360;2022-08-19T00:22:20;94215.81;;;24.40;56.83
6389;BME280;3227;42.654;23.360;2022-08-19T00:24:46;94229.53;;;24.30;57.32
6389;BME280;3227;42.654;23.360;2022-08-19T00:27:13;94226.34;;;24.24;57.37
6389;BME280;3227;42.654;23.360;2022-08-19T00:29:42;94225.69;;;24.21;57.58
6389;BME280;3227;42.654;23.360;2022-08-19T00:32:09;94217.66;;;24.24;58.03
6389;BME280;3227;42.654;23.360;2022-08-19T00:34:36;94235.13;;;24.23;57.75
6389;BME280;3227;42.654;23.360;2022-08-19T00:37:03;94226.44;;;24.23;58.02
6389;BME280;3227;42.654;23.360;2022-08-19T00:39:29;94220.28;;;24.24;58.80
6389;BME280;3227;42.654;23.360;2022-08-19T00:41:56;94226.34;;;24.24;58.02
6389;BME280;3227;42.654;23.360;2022-08-19T00:44:25;94228.19;;;24.22;58.10
6389;BME280;3227;42.654;23.360;2022-08-19T00:46:55;94223.91;;;24.21;58.12
6389;BME280;3227;42.654;23.360;2022-08-19T00:49:29;94217.13;;;24.17;57.65
6389;BME280;3227;42.654;23.360;2022-08-19T00:52:02;94223.47;;;24.13;57.42
6389;BME280;3227;42.654;23.360;2022-08-19T00:54:29;94157.91;;;23.71;57.74
6389;BME280;3227;42.654;23.360;2022-08-19T00:56:58;94222.66;;;23.97;57.97
6389;BME280;3227;42.654;23.360;2022-08-19T00:59:27;94218.47;;;23.95;58.74
6389;BME280;3227;42.654;23.360;2022-08-19T01:01:56;94217.41;;;23.97;58.88
6389;BME280;3227;42.654;23.360;2022-08-19T01:04:23;94186.41;;;23.75;58.98
6389;BME280;3227;42.654;23.360;2022-08-19T01:06:50;94217.78;;;23.91;59.16
6389;BME280;3227;42.654;23.360;2022-08-19T01:09:16;94224.84;;;23.89;59.15
6389;BME280;3227;42.654;23.360;2022-08-19T01:11:44;94182.81;;;23.62;58.91
6389;BME280;3227;42.654;23.360;2022-08-19T01:14:11;94216.53;;;23.82;59.92
6389;BME280;3227;42.654;23.360;2022-08-19T01:16:39;94212.84;;;23.71;59.12
6389;BME280;3227;42.654;23.360;2022-08-19T01:19:15;94211.06;;;23.71;59.25
6389;BME280;3227;42.654;23.360;2022-08-19T01:21:50;94215.94;;;23.77;58.78
6389;BME280;3227;42.654;23.360;2022-08-19T01:24:19;94212.66;;;23.74;59.75
6389;BME280;3227;42.654;23.360;2022-08-19T01:26:46;94217.47;;;23.66;59.71
6389;BME280;3227;42.654;23.360;2022-08-19T01:29:14;94207.63;;;23.55;59.86
6389;BME280;3227;42.654;23.360;2022-08-19T01:31:41;94215.16;;;23.44;60.93
6389;BME280;3227;42.654;23.360;2022-08-19T01:34:08;94219.63;;;23.42;60.81
6389;BME280;3227;42.654;23.360;2022-08-19T01:36:37;94200.97;;;23.32;61.35
6389;BME280;3227;42.654;23.360;2022-08-19T01:39:09;94215.25;;;23.42;61.67
6389;BME280;3227;42.654;23.360;2022-08-19T01:41:38;94221.59;;;23.38;61.68
6389;BME280;3227;42.654;23.360;2022-08-19T01:44:06;94220.47;;;23.42;61.61
6389;BME280;3227;42.654;23.360;2022-08-19T01:46:33;94207.41;;;23.42;61.67
6389;BME280;3227;42.654;23.360;2022-08-19T01:49:02;94214.47;;;23.40;61.69
6389;BME280;3227;42.654;23.360;2022-08-19T01:51:29;94223.25;;;23.39;62.94
6389;BME280;3227;42.654;23.360;2022-08-19T01:53:57;94216.25;;;23.40;62.17
6389;BME280;3227;42.654;23.360;2022-08-19T01:56:25;94213.41;;;23.44;61.88
6389;BME280;3227;42.654;23.360;2022-08-19T01:58:55;94210.00;;;23.42;62.11
6389;BME280;3227;42.654;23.360;2022-08-19T02:01:22;94221.75;;;23.35;62.62
6389;BME280;3227;42.654;23.360;2022-08-19T02:03:49;94221.16;;;23.30;62.71
6389;BME280;3227;42.654;23.360;2022-08-19T02:06:17;94207.66;;;23.22;62.31
6389;BME280;3227;42.654;23.360;2022-08-19T02:08:44;94220.19;;;23.31;62.20
6389;BME280;3227;42.654;23.360;2022-08-19T02:11:19;94209.31;;;23.23;62.24
6389;BME280;3227;42.654;23.360;2022-08-19T02:13:47;94217.34;;;23.20;62.41
6389;BME280;3227;42.654;23.360;2022-08-19T02:16:16;94212.19;;;23.19;63.07
6389;BME280;3227;42.654;23.360;2022-08-19T02:18:43;94221.09;;;23.14;63.05
6389;BME280;3227;42.654;23.360;2022-08-19T02:21:10;94212.75;;;23.08;63.31
6389;BME280;3227;42.654;23.360;2022-08-19T02:23:38;94213.00;;;23.03;63.52
6389;BME280;3227;42.654;23.360;2022-08-19T02:26:05;94223.88;;;22.96;63.91
6389;BME280;3227;42.654;23.360;2022-08-19T02:28:32;94210.81;;;22.96;64.10
6389;BME280;3227;42.654;23.360;2022-08-19T02:30:59;94219.72;;;22.92;64.34
6389;BME280;3227;42.654;23.360;2022-08-19T02:33:29;94219.22;;;22.85;64.79
6389;BME280;3227;42.654;23.360;2022-08-19T02:35:56;94215.91;;;22.82;65.10
6389;BME280;3227;42.654;23.360;2022-08-19T02:38:23;94221.91;;;22.84;65.19
6389;BME280;3227;42.654;23.360;2022-08-19T02:40:53;94220.91;;;22.86;65.39
6389;BME280;3227;42.654;23.360;2022-08-19T02:43:20;94224.34;;;22.87;64.93
6389;BME280;3227;42.654;23.360;2022-08-19T02:45:47;94165.88;;;22.56;64.58
6389;BME280;3227;42.654;23.360;2022-08-19T02:48:15;94228.25;;;22.95;63.77
6389;BME280;3227;42.654;23.360;2022-08-19T02:50:46;94204.44;;;22.84;63.40
6389;BME280;3227;42.654;23.360;2022-08-19T02:53:13;94228.34;;;22.94;63.46
6389;BME280;3227;42.654;23.360;2022-08-19T02:55:44;94237.09;;;22.93;63.64
6389;BME280;3227;42.654;23.360;2022-08-19T02:58:11;94237.56;;;22.84;63.58
6389;BME280;3227;42.654;23.360;2022-08-19T03:00:42;94234.09;;;22.83;63.49
6389;BME280;3227;42.654;23.360;2022-08-19T03:03:10;94236.78;;;22.82;63.29
6389;BME280;3227;42.654;23.360;2022-08-19T03:05:36;94235.22;;;22.79;63.01
6389;BME280;3227;42.654;23.360;2022-08-19T03:08:05;94239.59;;;22.79;62.85
6389;BME280;3227;42.654;23.360;2022-08-19T03:10:32;94230.97;;;22.76;63.58
6389;BME280;3227;42.654;23.360;2022-08-19T03:12:59;94230.97;;;22.76;64.19
6389;BME280;3227;42.654;23.360;2022-08-19T03:15:26;94224.91;;;22.76;64.21
6389;BME280;3227;42.654;23.360;2022-08-19T03:17:52;94221.31;;;22.79;64.26
6389;BME280;3227;42.654;23.360;2022-08-19T03:20:19;94223.25;;;22.73;63.75
6389;BME280;3227;42.654;23.360;2022-08-19T03:22:46;94218.28;;;22.69;64.13
6389;BME280;3227;42.654;23.360;2022-08-19T03:25:14;94219.97;;;22.70;63.97
6389;BME280;3227;42.654;23.360;2022-08-19T03:27:42;94211.44;;;22.66;63.79
6389;BME280;3227;42.654;23.360;2022-08-19T03:30:10;94200.28;;;22.47;64.05
6389;BME280;3227;42.654;23.360;2022-08-19T03:32:37;94228.34;;;22.59;64.62
6389;BME280;3227;42.654;23.360;2022-08-19T03:35:04;94224.63;;;22.48;64.04
6389;BME280;3227;42.654;23.360;2022-08-19T03:37:31;94221.91;;;22.49;64.39
6389;BME280;3227;42.654;23.360;2022-08-19T03:39:58;94102.22;;;21.74;64.42
6389;BME280;3227;42.654;23.360;2022-08-19T03:42:26;94147.84;;;22.00;64.30
6389;BME280;3227;42.654;23.360;2022-08-19T03:44:53;94239.78;;;22.57;64.09
6389;BME280;3227;42.654;23.360;2022-08-19T03:47:20;94242.84;;;22.65;63.93
6389;BME280;3227;42.654;23.360;2022-08-19T03:49:46;94246.88;;;22.89;63.51
6389;BME280;3227;42.654;23.360;2022-08-19T03:52:13;94200.38;;;22.96;62.21
6389;BME280;3227;42.654;23.360;2022-08-19T03:54:41;94227.09;;;23.49;60.96
6389;BME280;3227;42.654;23.360;2022-08-19T03:57:08;94249.34;;;24.04;59.20
6389;BME280;3227;42.654;23.360;2022-08-19T03:59:39;94245.88;;;24.49;57.61
6389;BME280;3227;42.654;23.360;2022-08-19T04:02:09;94250.63;;;24.86;55.76
6389;BME280;3227;42.654;23.360;2022-08-19T04:04:38;94258.84;;;25.10;55.08
6389;BME280;3227;42.654;23.360;2022-08-19T04:07:06;94262.38;;;25.37;54.97
6389;BME280;3227;42.654;23.360;2022-08-19T04:09:34;94228.44;;;25.49;53.55
6389;BME280;3227;42.654;23.360;2022-08-19T04:12:02;94268.22;;;25.98;52.16
6389;BME280;3227;42.654;23.360;2022-08-19T04:14:31;94267.66;;;26.20;51.91
6389;BME280;3227;42.654;23.360;2022-08-19T04:17:02;94213.84;;;26.12;51.34
6389;BME280;3227;42.654;23.360;2022-08-19T04:19:30;94273.31;;;26.80;50.35
6389;BME280;3227;42.654;23.360;2022-08-19T04:21:57;94270.94;;;27.02;49.35
6389;BME280;3227;42.654;23.360;2022-08-19T04:24:24;94270.25;;;27.25;48.77
6389;BME280;3227;42.654;23.360;2022-08-19T04:26:51;94274.09;;;27.45;48.12
6389;BME280;3227;42.654;23.360;2022-08-19T04:29:20;94272.81;;;27.51;47.59
6389;BME280;3227;42.654;23.360;2022-08-19T04:31:50;94284.97;;;27.66;47.57
6389;BME280;3227;42.654;23.360;2022-08-19T04:34:22;94275.31;;;27.90;46.63
6389;BME280;3227;42.654;23.360;2022-08-19T04:36:50;94284.84;;;28.17;46.02
6389;BME280;3227;42.654;23.360;2022-08-19T04:39:19;94280.66;;;28.38;45.20
6389;BME280;3227;42.654;23.360;2022-08-19T04:41:47;94272.91;;;28.48;44.59
6389;BME280;3227;42.654;23.360;2022-08-19T04:44:31;94266.50;;;28.63;44.45
6389;BME280;3227;42.654;23.360;2022-08-19T04:46:59;94236.59;;;28.51;44.08
6389;BME280;3227;42.654;23.360;2022-08-19T04:49:27;94264.00;;;28.96;43.52
6389;BME280;3227;42.654;23.360;2022-08-19T04:51:55;94263.75;;;28.99;42.60
6389;BME280;3227;42.654;23.360;2022-08-19T04:54:24;94270.97;;;28.97;42.51
6389;BME280;3227;42.654;23.360;2022-08-19T04:56:52;94273.00;;;29.05;42.87
6389;BME280;3227;42.654;23.360;2022-08-19T04:59:20;94276.53;;;29.28;42.56
6389;BME280;3227;42.654;23.360;2022-08-19T05:01:48;94277.06;;;29.55;42.04
6389;BME280;3227;42.654;23.360;2022-08-19T05:04:17;94283.91;;;29.80;42.33
6389;BME280;3227;42.654;23.360;2022-08-19T05:06:46;94282.69;;;30.06;42.11
6389;BME280;3227;42.654;23.360;2022-08-19T05:09:14;94282.25;;;30.33;40.80
6389;BME280;3227;42.654;23.360;2022-08-19T05:11:43;94263.41;;;30.38;39.79
6389;BME280;3227;42.654;23.360;2022-08-19T05:14:15;94287.94;;;30.72;39.68
6389;BME280;3227;42.654;23.360;2022-08-19T05:16:42;94283.91;;;30.88;39.19
6389;BME280;3227;42.654;23.360;2022-08-19T05:19:08;94275.91;;;30.99;38.47
6389;BME280;3227;42.654;23.360;2022-08-19T05:21:54;94279.81;;;31.16;38.33
6389;BME280;3227;42.654;23.360;2022-08-19T05:24:38;94277.34;;;31.24;38.20
6389;BME280;3227;42.654;23.360;2022-08-19T05:27:05;94284.94;;;31.38;38.03
6389;BME280;3227;42.654;23.360;2022-08-19T05:29:33;94284.50;;;31.54;37.63
6389;BME280;3227;42.654;23.360;2022-08-19T05:32:01;94284.09;;;31.59;37.96
6389;BME280;3227;42.654;23.360;2022-08-19T05:34:32;94282.66;;;31.75;37.80
6389;BME280;3227;42.654;23.360;2022-08-19T05:37:02;94288.84;;;31.86;37.49
6389;BME280;3227;42.654;23.360;2022-08-19T05:39:31;94292.38;;;31.65;36.95
6389;BME280;3227;42.654;23.360;2022-08-19T05:42:00;94285.28;;;31.45;37.18
6389;BME280;3227;42.654;23.360;2022-08-19T05:44:29;94297.75;;;31.13;37.85
6389;BME280;3227;42.654;23.360;2022-08-19T05:46:57;94289.75;;;30.71;38.68
6389;BME280;3227;42.654;23.360;2022-08-19T05:49:26;94286.75;;;30.21;39.36
6389;BME280;3227;42.654;23.360;2022-08-19T05:51:54;94264.44;;;29.70;40.32
6389;BME280;3227;42.654;23.360;2022-08-19T05:54:24;94282.94;;;29.59;41.18
6389;BME280;3227;42.654;23.360;2022-08-19T05:56:51;94281.31;;;29.34;41.69
6389;BME280;3227;42.654;23.360;2022-08-19T05:59:19;94282.34;;;29.09;41.97
6389;BME280;3227;42.654;23.360;2022-08-19T06:01:48;94277.25;;;28.84;42.77
6389;BME280;3227;42.654;23.360;2022-08-19T06:04:18;94288.16;;;28.79;43.31
6389;BME280;3227;42.654;23.360;2022-08-19T06:06:46;94273.84;;;28.70;43.69
6389;BME280;3227;42.654;23.360;2022-08-19T06:09:13;94288.59;;;28.97;43.33
6389;BME280;3227;42.654;23.360;2022-08-19T06:11:43;94287.38;;;29.01;43.07
6389;BME280;3227;42.654;23.360;2022-08-19T06:14:12;94286.47;;;29.24;43.42
6389;BME280;3227;42.654;23.360;2022-08-19T06:16:40;94296.84;;;29.38;43.20
6389;BME280;3227;42.654;23.360;2022-08-19T06:19:11;94270.41;;;29.27;41.43
6389;BME280;3227;42.654;23.360;2022-08-19T06:21:40;94296.47;;;29.43;41.93
6389;BME280;3227;42.654;23.360;2022-08-19T06:24:11;94299.84;;;29.45;40.98
6389;BME280;3227;42.654;23.360;2022-08-19T06:26:42;94278.94;;;29.31;40.90
6389;BME280;3227;42.654;23.360;2022-08-19T06:29:11;94292.00;;;29.21;41.07
6389;BME280;3227;42.654;23.360;2022-08-19T06:31:41;94291.13;;;29.09;40.73
6389;BME280;3227;42.654;23.360;2022-08-19T06:34:09;94289.59;;;29.29;41.34
6389;BME280;3227;42.654;23.360;2022-08-19T06:36:38;94295.41;;;29.68;41.62
6389;BME280;3227;42.654;23.360;2022-08-19T06:39:07;94297.22;;;29.89;40.41
6389;BME280;3227;42.654;23.360;2022-08-19T06:41:36;94284.75;;;29.69;41.10
6389;BME280;3227;42.654;23.360;2022-08-19T06:44:05;94285.81;;;29.78;41.61
6389;BME280;3227;42.654;23.360;2022-08-19T06:46:32;94266.00;;;29.83;41.19
6389;BME280;3227;42.654;23.360;2022-08-19T06:48:59;94290.13;;;29.90;41.64
6389;BME280;3227;42.654;23.360;2022-08-19T06:51:26;94289.69;;;29.96;42.67
6389;BME280;3227;42.654;23.360;2022-08-19T06:53:54;94283.88;;;29.91;41.89
6389;BME280;3227;42.654;23.360;2022-08-19T06:56:24;94291.09;;;29.78;42.58
6389;BME280;3227;42.654;23.360;2022-08-19T06:58:56;94294.94;;;29.63;43.70
6389;BME280;3227;42.654;23.360;2022-08-19T07:01:24;94301.06;;;29.63;42.55
6389;BME280;3227;42.654;23.360;2022-08-19T07:03:51;94294.59;;;29.56;43.21
6389;BME280;3227;42.654;23.360;2022-08-19T07:06:19;94298.66;;;29.71;43.32
6389;BME280;3227;42.654;23.360;2022-08-19T07:08:47;94305.50;;;29.74;42.84
6389;BME280;3227;42.654;23.360;2022-08-19T07:11:16;94269.09;;;29.22;43.05
6389;BME280;3227;42.654;23.360;2022-08-19T07:13:44;94268.31;;;29.08;43.84
6389;BME280;3227;42.654;23.360;2022-08-19T07:16:14;94279.53;;;29.23;43.58
6389;BME280;3227;42.654;23.360;2022-08-19T07:18:42;94308.25;;;29.39;43.25
6389;BME280;3227;42.654;23.360;2022-08-19T07:21:12;94290.41;;;29.19;43.55
6389;BME280;3227;42.654;23.360;2022-08-19T07:23:40;94299.00;;;29.44;43.59
6389;BME280;3227;42.654;23.360;2022-08-19T07:26:09;94303.59;;;29.65;43.16
6389;BME280;3227;42.654;23.360;2022-08-19T07:28:36;94301.78;;;29.76;42.65
6389;BME280;3227;42.654;23.360;2022-08-19T07:31:05;94299.59;;;29.81;42.50
6389;BME280;3227;42.654;23.360;2022-08-19T07:33:32;94296.72;;;29.73;42.23
6389;BME280;3227;42.654;23.360;2022-08-19T07:36:01;94304.06;;;29.70;41.85
6389;BME280;3227;42.654;23.360;2022-08-19T07:38:27;94306.22;;;29.87;42.82
6389;BME280;3227;42.654;23.360;2022-08-19T07:40:54;94302.25;;;30.15;42.11
6389;BME280;3227;42.654;23.360;2022-08-19T07:43:21;94277.94;;;30.32;40.69
6389;BME280;3227;42.654;23.360;2022-08-19T07:45:51;94306.09;;;30.65;39.80
6389;BME280;3227;42.654;23.360;2022-08-19T07:48:18;94301.38;;;30.80;40.11
6389;BME280;3227;42.654;23.360;2022-08-19T07:50:45;94303.25;;;30.89;39.87
6389;BME280;3227;42.654;23.360;2022-08-19T07:53:15;94295.38;;;30.98;39.37
6389;BME280;3227;42.654;23.360;2022-08-19T07:55:41;94305.94;;;31.10;39.27
6389;BME280;3227;42.654;23.360;2022-08-19T07:58:09;94306.59;;;31.23;38.78
6389;BME280;3227;42.654;23.360;2022-08-19T08:00:36;94301.88;;;31.26;38.41
6389;BME280;3227;42.654;23.360;2022-08-19T08:03:03;94303.63;;;31.16;39.21
6389;BME280;3227;42.654;23.360;2022-08-19T08:05:30;94301.34;;;31.32;38.94
6389;BME280;3227;42.654;23.360;2022-08-19T08:08:16;94294.50;;;31.51;38.49
6389;BME280;3227;42.654;23.360;2022-08-19T08:11:03;94292.38;;;31.65;38.69
6389;BME280;3227;42.654;23.360;2022-08-19T08:13:30;94293.84;;;31.79;38.57
6389;BME280;3227;42.654;23.360;2022-08-19T08:15:58;94294.41;;;31.83;37.00
6389;BME280;3227;42.654;23.360;2022-08-19T08:18:25;94294.31;;;31.63;37.27
6389;BME280;3227;42.654;23.360;2022-08-19T08:20:51;94291.66;;;31.43;37.12
6389;BME280;3227;42.654;23.360;2022-08-19T08:23:20;94277.16;;;31.37;37.79
6389;BME280;3227;42.654;23.360;2022-08-19T08:25:50;94283.78;;;31.52;38.86
6389;BME280;3227;42.654;23.360;2022-08-19T08:28:18;94277.06;;;31.69;37.50
6389;BME280;3227;42.654;23.360;2022-08-19T08:30:46;94285.19;;;31.77;36.40
6389;BME280;3227;42.654;23.360;2022-08-19T08:33:13;94282.78;;;31.74;36.57
6389;BME280;3227;42.654;23.360;2022-08-19T08:35:41;94285.91;;;31.79;36.70
6389;BME280;3227;42.654;23.360;2022-08-19T08:38:08;94269.53;;;31.74;36.98
6389;BME280;3227;42.654;23.360;2022-08-19T08:40:43;94281.03;;;31.84;36.97
6389;BME280;3227;42.654;23.360;2022-08-19T08:43:24;94279.94;;;31.87;37.31
6389;BME280;3227;42.654;23.360;2022-08-19T08:45:59;94278.00;;;31.98;37.29
6389;BME280;3227;42.654;23.360;2022-08-19T08:48:35;94269.03;;;31.90;36.03
6389;BME280;3227;42.654;23.360;2022-08-19T08:51:05;94272.53;;;31.90;36.12
6389;BME280;3227;42.654;23.360;2022-08-19T08:53:34;94269.03;;;31.90;35.07
6389;BME280;3227;42.654;23.360;2022-08-19T08:56:09;94266.94;;;31.84;36.02
6389;BME280;3227;42.654;23.360;2022-08-19T08:58:45;94263.19;;;31.86;34.50
6389;BME280;3227;42.654;23.360;2022-08-19T09:01:14;94269.72;;;31.82;34.33
6389;BME280;3227;42.654;23.360;2022-08-19T09:03:42;94228.25;;;31.62;33.40
6389;BME280;3227;42.654;23.360;2022-08-19T09:06:14;94266.50;;;31.79;33.75
6389;BME280;3227;42.654;23.360;2022-08-19T09:08:49;94265.09;;;31.74;33.31
6389;BME280;3227;42.654;23.360;2022-08-19T09:11:30;94254.78;;;31.81;34.06
6389;BME280;3227;42.654;23.360;2022-08-19T09:14:09;94239.50;;;31.94;32.99
6389;BME280;3227;42.654;23.360;2022-08-19T09:16:38;94253.47;;;32.06;33.21
6389;BME280;3227;42.654;23.360;2022-08-19T09:19:07;94243.00;;;32.14;33.26
6389;BME280;3227;42.654;23.360;2022-08-19T09:21:36;94249.38;;;32.32;33.19
6389;BME280;3227;42.654;23.360;2022-08-19T09:24:04;94245.47;;;32.46;33.19
6389;BME280;3227;42.654;23.360;2022-08-19T09:26:33;94245.47;;;32.56;32.71
6389;BME280;3227;42.654;23.360;2022-08-19T09:29:00;94245.78;;;32.53;31.65
6389;BME280;3227;42.654;23.360;2022-08-19T09:31:30;94237.09;;;32.50;30.57
6389;BME280;3227;42.654;23.360;2022-08-19T09:33:58;94242.94;;;32.54;30.28
6389;BME280;3227;42.654;23.360;2022-08-19T09:36:26;94242.41;;;32.50;29.53
6389;BME280;3227;42.654;23.360;2022-08-19T09:38:55;94234.31;;;32.42;29.44
6389;BME280;3227;42.654;23.360;2022-08-19T09:41:23;94228.88;;;32.44;29.45
6389;BME280;3227;42.654;23.360;2022-08-19T09:43:54;94235.41;;;32.30;29.00
6389;BME280;3227;42.654;23.360;2022-08-19T09:46:23;94230.94;;;32.40;29.45
6389;BME280;3227;42.654;23.360;2022-08-19T09:48:51;94233.47;;;32.52;29.38
6389;BME280;3227;42.654;23.360;2022-08-19T09:51:22;94222.31;;;32.58;29.01
6389;BME280;3227;42.654;23.360;2022-08-19T09:53:50;94225.94;;;32.66;29.11
6389;BME280;3227;42.654;23.360;2022-08-19T09:56:23;94224.69;;;32.80;28.41
6389;BME280;3227;42.654;23.360;2022-08-19T09:58:52;94226.22;;;32.82;28.25
6389;BME280;3227;42.654;23.360;2022-08-19T10:01:21;94217.28;;;32.83;27.66
6389;BME280;3227;42.654;23.360;2022-08-19T10:03:50;94204.44;;;32.79;28.06
6389;BME280;3227;42.654;23.360;2022-08-19T10:06:19;94213.22;;;32.79;27.10
6389;BME280;3227;42.654;23.360;2022-08-19T10:08:48;94205.13;;;32.71;27.76
6389;BME280;3227;42.654;23.360;2022-08-19T10:11:17;94203.03;;;32.46;28.15
6389;BME280;3227;42.654;23.360;2022-08-19T10:13:44;94212.25;;;32.42;28.66
6389;BME280;3227;42.654;23.360;2022-08-19T10:16:15;94198.56;;;32.46;28.80
6389;BME280;3227;42.654;23.360;2022-08-19T10:18:43;94207.22;;;32.58;28.87
6389;BME280;3227;42.654;23.360;2022-08-19T10:21:11;94178.03;;;32.58;28.50
6389;BME280;3227;42.654;23.360;2022-08-19T10:23:41;94194.13;;;32.76;28.87
6389;BME280;3227;42.654;23.360;2022-08-19T10:26:11;94203.91;;;32.75;28.41
6389;BME280;3227;42.654;23.360;2022-08-19T10:28:39;94192.72;;;32.72;28.25
6389;BME280;3227;42.654;23.360;2022-08-19T10:31:07;94195.66;;;32.69;28.91
6389;BME280;3227;42.654;23.360;2022-08-19T10:33:36;94189.34;;;32.70;28.23
6389;BME280;3227;42.654;23.360;2022-08-19T10:36:05;94184.31;;;32.47;28.67
6389;BME280;3227;42.654;23.360;2022-08-19T10:38:33;94192.41;;;32.46;28.68
6389;BME280;3227;42.654;23.360;2022-08-19T10:41:07;94187.81;;;32.48;28.31
6389;BME280;3227;42.654;23.360;2022-08-19T10:43:34;94180.69;;;32.48;28.95
6389;BME280;3227;42.654;23.360;2022-08-19T10:46:04;94185.44;;;32.55;28.78
6389;BME280;3227;42.654;23.360;2022-08-19T10:48:31;94182.78;;;32.55;28.69
6389;BME280;3227;42.654;23.360;2022-08-19T10:50:59;94187.09;;;32.46;28.11
6389;BME280;3227;42.654;23.360;2022-08-19T10:53:43;94176.09;;;32.41;28.56
6389;BME280;3227;42.654;23.360;2022-08-19T10:56:11;94185.72;;;32.52;28.72
6389;BME280;3227;42.654;23.360;2022-08-19T10:58:56;94177.63;;;32.53;28.46
6389;BME280;3227;42.654;23.360;2022-08-19T11:01:23;94176.66;;;32.44;28.40
6389;BME280;3227;42.654;23.360;2022-08-19T11:03:50;94171.50;;;32.43;29.68
6389;BME280;3227;42.654;23.360;2022-08-19T11:06:19;94177.91;;;32.40;28.70
6389;BME280;3227;42.654;23.360;2022-08-19T11:08:46;94175.13;;;32.42;29.79
6389;BME280;3227;42.654;23.360;2022-08-19T11:11:13;94166.19;;;32.43;29.32
6389;BME280;3227;42.654;23.360;2022-08-19T11:13:40;94168.72;;;32.44;28.86
6389;BME280;3227;42.654;23.360;2022-08-19T11:16:10;94172.47;;;32.42;28.66
6389;BME280;3227;42.654;23.360;2022-08-19T11:18:40;94164.78;;;32.39;29.39
6389;BME280;3227;42.654;23.360;2022-08-19T11:21:11;94163.53;;;32.43;29.62
6389;BME280;3227;42.654;23.360;2022-08-19T11:23:40;94164.22;;;32.55;29.62
6389;BME280;3227;42.654;23.360;2022-08-19T11:26:07;94168.69;;;32.54;28.76
6389;BME280;3227;42.654;23.360;2022-08-19T11:28:33;94161.72;;;32.43;29.85
6389;BME280;3227;42.654;23.360;2022-08-19T11:31:00;94153.34;;;32.29;29.73
6389;BME280;3227;42.654;23.360;2022-08-19T11:33:29;94103.06;;;31.89;29.56
6389;BME280;3227;42.654;23.360;2022-08-19T11:35:57;94150.00;;;32.27;29.98
6389;BME280;3227;42.654;23.360;2022-08-19T11:38:24;94145.69;;;32.35;29.88
6389;BME280;3227;42.654;23.360;2022-08-19T11:40:57;94143.44;;;32.40;29.65
6389;BME280;3227;42.654;23.360;2022-08-19T11:43:24;94148.47;;;32.43;29.58
6389;BME280;3227;42.654;23.360;2022-08-19T11:45:52;94146.34;;;32.47;29.12
6389;BME280;3227;42.654;23.360;2022-08-19T11:48:19;94148.88;;;32.39;29.47
6389;BME280;3227;42.654;23.360;2022-08-19T11:50:47;94147.75;;;32.41;29.25
6389;BME280;3227;42.654;23.360;2022-08-19T11:53:14;94149.84;;;32.47;29.62
6389;BME280;3227;42.654;23.360;2022-08-19T11:55:41;94143.56;;;32.58;29.19
6389;BME280;3227;42.654;23.360;2022-08-19T11:58:10;94143.69;;;32.66;29.24
6389;BME280;3227;42.654;23.360;2022-08-19T12:00:38;94121.63;;;32.66;29.02
6389;BME280;3227;42.654;23.360;2022-08-19T12:03:05;94132.38;;;32.74;29.00
6389;BME280;3227;42.654;23.360;2022-08-19T12:05:32;94100.53;;;32.55;29.38
6389;BME280;3227;42.654;23.360;2022-08-19T12:07:59;94125.97;;;32.76;29.09
6389;BME280;3227;42.654;23.360;2022-08-19T12:10:26;94123.19;;;32.78;28.84
6389;BME280;3227;42.654;23.360;2022-08-19T12:12:52;94117.28;;;32.84;28.81
6389;BME280;3227;42.654;23.360;2022-08-19T12:15:21;94112.09;;;32.92;29.24
6389;BME280;3227;42.654;23.360;2022-08-19T12:17:47;94119.19;;;33.01;28.75
6389;BME280;3227;42.654;23.360;2022-08-19T12:20:14;94100.50;;;32.93;28.47
6389;BME280;3227;42.654;23.360;2022-08-19T12:22:42;94114.41;;;33.05;28.30
6389;BME280;3227;42.654;23.360;2022-08-19T12:25:10;94100.16;;;33.06;28.70
6389;BME280;3227;42.654;23.360;2022-08-19T12:27:37;94101.38;;;33.11;28.66
6389;BME280;3227;42.654;23.360;2022-08-19T12:30:07;94099.84;;;33.18;28.87
6389;BME280;3227;42.654;23.360;2022-08-19T12:32:35;94089.66;;;33.23;28.78
6389;BME280;3227;42.654;23.360;2022-08-19T12:35:03;94090.34;;;33.26;28.59
6389;BME280;3227;42.654;23.360;2022-08-19T12:37:30;94095.91;;;33.32;28.45
6389;BME280;3227;42.654;23.360;2022-08-19T12:39:58;94087.94;;;33.32;28.38
6389;BME280;3227;42.654;23.360;2022-08-19T12:42:25;94084.66;;;33.38;28.68
6389;BME280;3227;42.654;23.360;2022-08-19T12:44:52;94079.91;;;33.42;28.12
6389;BME280;3227;42.654;23.360;2022-08-19T12:47:19;94083.41;;;33.42;28.50
6389;BME280;3227;42.654;23.360;2022-08-19T12:49:48;94080.75;;;33.42;28.40
6389;BME280;3227;42.654;23.360;2022-08-19T12:52:15;94076.66;;;33.48;28.33
6389;BME280;3227;42.654;23.360;2022-08-19T12:54:42;94079.03;;;33.51;28.33
6389;BME280;3227;42.654;23.360;2022-08-19T12:57:10;94077.34;;;33.50;28.16
6389;BME280;3227;42.654;23.360;2022-08-19T12:59:38;94069.56;;;33.39;27.77
6389;BME280;3227;42.654;23.360;2022-08-19T13:02:06;94073.63;;;33.43;28.11
6389;BME280;3227;42.654;23.360;2022-08-19T13:04:34;94061.47;;;33.40;28.19
6389;BME280;3227;42.654;23.360;2022-08-19T13:07:04;94075.91;;;33.55;27.84
6389;BME280;3227;42.654;23.360;2022-08-19T13:09:31;94077.28;;;33.59;27.63
6389;BME280;3227;42.654;23.360;2022-08-19T13:11:58;94071.88;;;33.69;27.90
6389;BME280;3227;42.654;23.360;2022-08-19T13:14:29;94068.25;;;33.70;27.87
6389;BME280;3227;42.654;23.360;2022-08-19T13:16:57;94064.63;;;33.71;28.24